sensor_id;sensor_type;location;lat;lon;timestamp;pressure;altitude;pressure_sealevel;temperature;humidity
31717;BME280;18301;51.076;17.046;2023-06-14T00:00:23;100177.38;;;13.59;68.50
31717;BME280;18301;51.076;17.046;2023-06-14T00:05:24;100181.97;;;13.69;68.42
31717;BME280;18301;51.076;17.046;2023-06-14T00:10:26;100183.66;;;13.60;68.79
31717;BME280;18301;51.076;17.046;2023-06-14T00:15:32;100174.22;;;13.54;69.20
31717;BME280;18301;51.076;17.046;2023-06-14T00:20:33;100177.94;;;13.53;69.23
31717;BME280;18301;51.076;17.046;2023-06-14T00:25:35;100173.78;;;13.49;69.40
31717;BME280;18301;51.076;17.046;2023-06-14T00:30:37;100176.78;;;13.46;69.84
31717;BME280;18301;51.076;17.046;2023-06-14T00:35:38;100175.94;;;13.46;70.41
31717;BME280;18301;51.076;17.046;2023-06-14T00:40:40;100178.50;;;13.47;69.96
31717;BME280;18301;51.076;17.046;2023-06-14T00:45:41;100186.13;;;13.32;71.17
31717;BME280;18301;51.076;17.046;2023-06-14T00:50:44;100184.81;;;13.27;71.45
31717;BME280;18301;51.076;17.046;2023-06-14T00:55:47;100182.19;;;13.16;71.57
31717;BME280;18301;51.076;17.046;2023-06-14T01:00:48;100185.81;;;13.05;73.44
31717;BME280;18301;51.076;17.046;2023-06-14T01:05:55;100191.38;;;13.03;72.23
31717;BME280;18301;51.076;17.046;2023-06-14T01:11:12;100193.63;;;12.98;72.98
31717;BME280;18301;51.076;17.046;2023-06-14T01:16:17;100190.41;;;12.83;73.44
31717;BME280;18301;51.076;17.046;2023-06-14T01:21:20;100197.88;;;12.91;72.95
31717;BME280;18301;51.076;17.046;2023-06-14T01:26:23;100186.72;;;12.84;73.13
31717;BME280;18301;51.076;17.046;2023-06-14T01:31:25;100191.56;;;12.81;73.60
31717;BME280;18301;51.076;17.046;2023-06-14T01:36:27;100183.97;;;12.75;74.69
31717;BME280;18301;51.076;17.046;2023-06-14T01:41:29;100185.19;;;12.71;73.91
31717;BME280;18301;51.076;17.046;2023-06-14T01:46:31;100186.03;;;12.71;73.89
31717;BME280;18301;51.076;17.046;2023-06-14T01:51:33;100185.66;;;12.76;74.53
31717;BME280;18301;51.076;17.046;2023-06-14T01:56:35;100193.25;;;12.82;74.68
31717;BME280;18301;51.076;17.046;2023-06-14T02:01:36;100178.28;;;12.78;74.81
31717;BME280;18301;51.076;17.046;2023-06-14T02:06:38;100179.44;;;12.64;75.44
31717;BME280;18301;51.076;17.046;2023-06-14T02:11:39;100173.03;;;12.65;75.19
31717;BME280;18301;51.076;17.046;2023-06-14T02:16:41;100180.03;;;12.67;75.03
31717;BME280;18301;51.076;17.046;2023-06-14T02:21:49;100178.91;;;12.70;75.04
31717;BME280;18301;51.076;17.046;2023-06-14T02:26:51;100181.03;;;12.66;75.66
31717;BME280;18301;51.076;17.046;2023-06-14T02:31:53;100175.88;;;12.63;76.34
31717;BME280;18301;51.076;17.046;2023-06-14T02:36:54;100176.09;;;12.72;76.26
31717;BME280;18301;51.076;17.046;2023-06-14T02:41:56;100173.03;;;12.86;75.96
31717;BME280;18301;51.076;17.046;2023-06-14T02:46:58;100183.59;;;12.89;75.89
31717;BME280;18301;51.076;17.046;2023-06-14T02:52:02;100176.47;;;12.88;76.35
31717;BME280;18301;51.076;17.046;2023-06-14T02:57:04;100184.72;;;12.86;76.55
31717;BME280;18301;51.076;17.046;2023-06-14T03:02:08;100181.16;;;12.86;76.44
31717;BME280;18301;51.076;17.046;2023-06-14T03:07:09;100175.34;;;12.90;76.73
31717;BME280;18301;51.076;17.046;2023-06-14T03:12:11;100170.25;;;12.97;76.92
31717;BME280;18301;51.076;17.046;2023-06-14T03:17:13;100191.56;;;13.11;76.94
31717;BME280;18301;51.076;17.046;2023-06-14T03:22:15;100186.28;;;13.10;77.58
31717;BME280;18301;51.076;17.046;2023-06-14T03:27:16;100178.19;;;13.20;77.26
31717;BME280;18301;51.076;17.046;2023-06-14T03:32:18;100193.00;;;13.37;76.53
31717;BME280;18301;51.076;17.046;2023-06-14T03:37:19;100191.16;;;13.37;76.66
31717;BME280;18301;51.076;17.046;2023-06-14T03:42:21;100191.84;;;13.39;76.90
31717;BME280;18301;51.076;17.046;2023-06-14T03:47:22;100198.47;;;13.46;76.11
31717;BME280;18301;51.076;17.046;2023-06-14T03:52:24;100192.06;;;13.57;76.23
31717;BME280;18301;51.076;17.046;2023-06-14T03:57:26;100188.84;;;13.73;76.57
31717;BME280;18301;51.076;17.046;2023-06-14T04:02:27;100202.59;;;14.00;76.35
31717;BME280;18301;51.076;17.046;2023-06-14T04:07:32;100197.78;;;14.14;76.43
31717;BME280;18301;51.076;17.046;2023-06-14T04:12:33;100201.06;;;14.37;75.54
31717;BME280;18301;51.076;17.046;2023-06-14T04:17:36;100205.50;;;14.47;75.07
31717;BME280;18301;51.076;17.046;2023-06-14T04:22:38;100205.50;;;14.47;75.04
31717;BME280;18301;51.076;17.046;2023-06-14T04:27:39;100203.38;;;14.61;74.85
31717;BME280;18301;51.076;17.046;2023-06-14T04:32:41;100190.66;;;14.71;75.11
31717;BME280;18301;51.076;17.046;2023-06-14T04:37:44;100191.78;;;14.88;74.62
31717;BME280;18301;51.076;17.046;2023-06-14T04:42:46;100205.19;;;14.89;74.33
31717;BME280;18301;51.076;17.046;2023-06-14T04:47:48;100200.78;;;14.88;74.52
31717;BME280;18301;51.076;17.046;2023-06-14T04:52:50;100204.63;;;14.95;74.62
31717;BME280;18301;51.076;17.046;2023-06-14T04:57:52;100215.47;;;15.15;74.26
31717;BME280;18301;51.076;17.046;2023-06-14T05:02:54;100235.16;;;15.27;74.40
31717;BME280;18301;51.076;17.046;2023-06-14T05:07:56;100230.00;;;15.24;74.17
31717;BME280;18301;51.076;17.046;2023-06-14T05:12:58;100239.75;;;15.16;74.74
31717;BME280;18301;51.076;17.046;2023-06-14T05:17:59;100230.34;;;15.11;75.07
31717;BME280;18301;51.076;17.046;2023-06-14T05:23:01;100232.94;;;15.03;75.02
31717;BME280;18301;51.076;17.046;2023-06-14T05:28:03;100229.75;;;15.17;75.37
31717;BME280;18301;51.076;17.046;2023-06-14T05:33:04;100234.44;;;15.34;75.22
31717;BME280;18301;51.076;17.046;2023-06-14T05:38:06;100234.56;;;15.42;75.17
31717;BME280;18301;51.076;17.046;2023-06-14T05:43:09;100221.59;;;15.64;75.08
31717;BME280;18301;51.076;17.046;2023-06-14T05:48:10;100229.81;;;15.82;74.70
31717;BME280;18301;51.076;17.046;2023-06-14T05:53:12;100228.59;;;15.94;74.30
31717;BME280;18301;51.076;17.046;2023-06-14T05:58:13;100225.72;;;15.96;73.98
31717;BME280;18301;51.076;17.046;2023-06-14T06:03:15;100234.78;;;16.14;73.70
31717;BME280;18301;51.076;17.046;2023-06-14T06:08:17;100240.53;;;16.11;73.48
31717;BME280;18301;51.076;17.046;2023-06-14T06:13:18;100248.63;;;16.21;73.42
31717;BME280;18301;51.076;17.046;2023-06-14T06:18:20;100241.44;;;16.47;72.58
31717;BME280;18301;51.076;17.046;2023-06-14T06:23:21;100242.66;;;16.71;71.74
31717;BME280;18301;51.076;17.046;2023-06-14T06:28:23;100246.66;;;16.94;71.04
31717;BME280;18301;51.076;17.046;2023-06-14T06:33:24;100254.13;;;16.92;71.20
31717;BME280;18301;51.076;17.046;2023-06-14T06:38:26;100254.09;;;17.10;71.26
31717;BME280;18301;51.076;17.046;2023-06-14T06:43:28;100248.63;;;17.62;70.58
31717;BME280;18301;51.076;17.046;2023-06-14T06:48:29;100252.16;;;17.81;69.73
31717;BME280;18301;51.076;17.046;2023-06-14T06:53:31;100266.56;;;17.73;69.07
31717;BME280;18301;51.076;17.046;2023-06-14T06:58:43;100274.94;;;17.45;69.92
31717;BME280;18301;51.076;17.046;2023-06-14T07:03:44;100275.75;;;17.38;70.30
31717;BME280;18301;51.076;17.046;2023-06-14T07:08:46;100273.81;;;17.82;70.48
31717;BME280;18301;51.076;17.046;2023-06-14T07:13:49;100281.09;;;18.67;68.50
31717;BME280;18301;51.076;17.046;2023-06-14T07:18:51;100272.25;;;19.14;67.46
31717;BME280;18301;51.076;17.046;2023-06-14T07:23:53;100268.50;;;19.31;66.26
31717;BME280;18301;51.076;17.046;2023-06-14T07:28:55;100279.78;;;19.28;65.75
31717;BME280;18301;51.076;17.046;2023-06-14T07:33:56;100263.69;;;18.84;64.59
31717;BME280;18301;51.076;17.046;2023-06-14T07:38:58;100267.94;;;18.70;65.03
31717;BME280;18301;51.076;17.046;2023-06-14T07:44:00;100273.03;;;18.49;66.41
31717;BME280;18301;51.076;17.046;2023-06-14T07:49:02;100270.13;;;18.50;66.41
31717;BME280;18301;51.076;17.046;2023-06-14T07:54:04;100270.84;;;18.60;66.00
31717;BME280;18301;51.076;17.046;2023-06-14T07:59:05;100280.47;;;18.73;66.39
31717;BME280;18301;51.076;17.046;2023-06-14T08:04:07;100279.56;;;18.72;65.22
31717;BME280;18301;51.076;17.046;2023-06-14T08:09:08;100273.91;;;18.66;66.11
31717;BME280;18301;51.076;17.046;2023-06-14T08:14:10;100274.31;;;18.95;65.96
31717;BME280;18301;51.076;17.046;2023-06-14T08:19:12;100259.06;;;19.42;64.73
31717;BME280;18301;51.076;17.046;2023-06-14T08:24:14;100271.44;;;19.85;62.47
31717;BME280;18301;51.076;17.046;2023-06-14T08:29:15;100267.28;;;19.97;61.70
31717;BME280;18301;51.076;17.046;2023-06-14T08:34:17;100280.06;;;19.58;62.09
31717;BME280;18301;51.076;17.046;2023-06-14T08:39:18;100272.56;;;19.35;63.12
31717;BME280;18301;51.076;17.046;2023-06-14T08:44:20;100269.84;;;19.35;62.08
31717;BME280;18301;51.076;17.046;2023-06-14T08:49:22;100268.78;;;19.44;61.52
31717;BME280;18301;51.076;17.046;2023-06-14T08:54:27;100273.22;;;19.70;61.50
31717;BME280;18301;51.076;17.046;2023-06-14T08:59:30;100268.53;;;19.87;61.02
31717;BME280;18301;51.076;17.046;2023-06-14T09:04:35;100276.28;;;19.75;61.59
31717;BME280;18301;51.076;17.046;2023-06-14T09:09:40;100274.06;;;19.62;61.85
31717;BME280;18301;51.076;17.046;2023-06-14T09:15:04;100273.22;;;19.53;61.94
31717;BME280;18301;51.076;17.046;2023-06-14T09:20:08;100276.50;;;19.32;62.21
31717;BME280;18301;51.076;17.046;2023-06-14T09:25:21;100276.88;;;19.05;62.95
31717;BME280;18301;51.076;17.046;2023-06-14T09:30:40;100273.81;;;18.92;63.56
31717;BME280;18301;51.076;17.046;2023-06-14T09:35:42;100274.31;;;18.95;63.53
31717;BME280;18301;51.076;17.046;2023-06-14T09:40:46;100275.16;;;19.04;63.36
31717;BME280;18301;51.076;17.046;2023-06-14T09:45:48;100272.25;;;19.14;63.50
31717;BME280;18301;51.076;17.046;2023-06-14T09:50:50;100274.28;;;18.87;63.94
31717;BME280;18301;51.076;17.046;2023-06-14T09:55:52;100273.28;;;18.88;64.00
31717;BME280;18301;51.076;17.046;2023-06-14T10:00:54;100279.59;;;19.05;65.19
31717;BME280;18301;51.076;17.046;2023-06-14T10:05:58;100287.97;;;19.12;65.00
31717;BME280;18301;51.076;17.046;2023-06-14T10:11:02;100298.94;;;19.03;65.09
31717;BME280;18301;51.076;17.046;2023-06-14T10:16:16;100290.38;;;18.82;64.28
31717;BME280;18301;51.076;17.046;2023-06-14T10:21:31;100286.63;;;18.91;64.76
31717;BME280;18301;51.076;17.046;2023-06-14T10:26:33;100297.56;;;19.16;63.08
31717;BME280;18301;51.076;17.046;2023-06-14T10:31:49;100293.94;;;19.56;63.29
31717;BME280;18301;51.076;17.046;2023-06-14T10:37:00;100284.75;;;20.05;61.73
31717;BME280;18301;51.076;17.046;2023-06-14T10:42:04;100281.00;;;19.97;61.84
31717;BME280;18301;51.076;17.046;2023-06-14T10:47:58;100281.94;;;20.21;61.87
31717;BME280;18301;51.076;17.046;2023-06-14T10:52:54;100282.38;;;20.02;60.38
31717;BME280;18301;51.076;17.046;2023-06-14T10:57:56;100280.34;;;19.87;60.54
31717;BME280;18301;51.076;17.046;2023-06-14T11:08:33;100266.66;;;19.87;60.68
31717;BME280;18301;51.076;17.046;2023-06-14T11:13:42;100267.38;;;19.73;61.54
31717;BME280;18301;51.076;17.046;2023-06-14T11:18:44;100267.16;;;19.91;60.35
31717;BME280;18301;51.076;17.046;2023-06-14T11:23:50;100265.00;;;19.70;60.11
31717;BME280;18301;51.076;17.046;2023-06-14T11:29:00;100260.56;;;19.69;62.17
31717;BME280;18301;51.076;17.046;2023-06-14T11:34:02;100263.63;;;19.74;64.42
31717;BME280;18301;51.076;17.046;2023-06-14T11:39:06;100256.41;;;19.81;63.32
31717;BME280;18301;51.076;17.046;2023-06-14T11:44:11;100257.00;;;20.08;64.21
31717;BME280;18301;51.076;17.046;2023-06-14T11:49:13;100258.13;;;20.53;60.08
31717;BME280;18301;51.076;17.046;2023-06-14T11:54:15;100243.97;;;20.72;62.37
31717;BME280;18301;51.076;17.046;2023-06-14T11:59:16;100231.13;;;21.25;61.95
31717;BME280;18301;51.076;17.046;2023-06-14T12:04:26;100229.28;;;21.70;56.36
31717;BME280;18301;51.076;17.046;2023-06-14T12:09:28;100228.84;;;21.14;56.64
31717;BME280;18301;51.076;17.046;2023-06-14T12:14:30;100232.66;;;20.90;56.81
31717;BME280;18301;51.076;17.046;2023-06-14T12:19:32;100227.09;;;20.98;57.41
31717;BME280;18301;51.076;17.046;2023-06-14T12:24:34;100224.25;;;20.91;56.94
31717;BME280;18301;51.076;17.046;2023-06-14T12:29:36;100225.66;;;20.87;56.47
31717;BME280;18301;51.076;17.046;2023-06-14T12:34:37;100233.19;;;20.39;57.57
31717;BME280;18301;51.076;17.046;2023-06-14T12:39:39;100222.53;;;20.13;58.61
31717;BME280;18301;51.076;17.046;2023-06-14T12:44:41;100219.94;;;20.20;59.12
31717;BME280;18301;51.076;17.046;2023-06-14T12:49:44;100222.81;;;20.50;59.49
31717;BME280;18301;51.076;17.046;2023-06-14T12:54:45;100212.75;;;21.11;56.28
31717;BME280;18301;51.076;17.046;2023-06-14T12:59:46;100211.78;;;21.42;55.47
31717;BME280;18301;51.076;17.046;2023-06-14T13:04:48;100206.59;;;21.24;55.79
31717;BME280;18301;51.076;17.046;2023-06-14T13:09:49;100206.84;;;21.52;55.72
31717;BME280;18301;51.076;17.046;2023-06-14T13:14:51;100205.72;;;21.46;56.47
31717;BME280;18301;51.076;17.046;2023-06-14T13:19:53;100209.31;;;21.47;56.82
31717;BME280;18301;51.076;17.046;2023-06-14T13:24:54;100206.59;;;21.47;57.15
31717;BME280;18301;51.076;17.046;2023-06-14T13:29:56;100208.06;;;21.34;57.73
31717;BME280;18301;51.076;17.046;2023-06-14T13:34:58;100211.09;;;21.40;57.29
31717;BME280;18301;51.076;17.046;2023-06-14T13:39:59;100207.84;;;21.21;56.66
31717;BME280;18301;51.076;17.046;2023-06-14T13:45:02;100214.16;;;21.59;55.32
31717;BME280;18301;51.076;17.046;2023-06-14T13:50:04;100210.81;;;21.79;55.10
31717;BME280;18301;51.076;17.046;2023-06-14T13:55:06;100208.66;;;21.74;54.52
31717;BME280;18301;51.076;17.046;2023-06-14T14:00:09;100207.69;;;21.67;55.52
31717;BME280;18301;51.076;17.046;2023-06-14T14:05:11;100204.84;;;21.46;54.34
31717;BME280;18301;51.076;17.046;2023-06-14T14:10:13;100203.91;;;21.38;55.35
31717;BME280;18301;51.076;17.046;2023-06-14T14:15:15;100205.81;;;21.53;54.81
31717;BME280;18301;51.076;17.046;2023-06-14T14:20:17;100215.28;;;21.50;56.06
31717;BME280;18301;51.076;17.046;2023-06-14T14:25:19;100217.91;;;20.91;57.30
31717;BME280;18301;51.076;17.046;2023-06-14T14:30:20;100218.72;;;20.54;57.60
31717;BME280;18301;51.076;17.046;2023-06-14T14:35:24;100229.03;;;20.43;56.78
31717;BME280;18301;51.076;17.046;2023-06-14T14:40:31;100226.72;;;20.32;56.61
31717;BME280;18301;51.076;17.046;2023-06-14T14:45:33;100233.94;;;20.25;57.12
31717;BME280;18301;51.076;17.046;2023-06-14T14:50:34;100247.13;;;19.90;58.12
31717;BME280;18301;51.076;17.046;2023-06-14T14:55:36;100233.56;;;19.49;60.26
31717;BME280;18301;51.076;17.046;2023-06-14T15:00:38;100237.00;;;19.35;64.78
31717;BME280;18301;51.076;17.046;2023-06-14T15:05:40;100232.22;;;19.21;67.13
31717;BME280;18301;51.076;17.046;2023-06-14T15:10:42;100242.16;;;19.05;68.73
31717;BME280;18301;51.076;17.046;2023-06-14T15:15:44;100241.69;;;18.94;69.28
31717;BME280;18301;51.076;17.046;2023-06-14T15:20:46;100240.31;;;18.98;67.93
31717;BME280;18301;51.076;17.046;2023-06-14T15:25:47;100230.03;;;18.83;68.50
31717;BME280;18301;51.076;17.046;2023-06-14T15:30:49;100230.22;;;18.82;69.06
31717;BME280;18301;51.076;17.046;2023-06-14T15:35:50;100230.84;;;18.59;70.44
31717;BME280;18301;51.076;17.046;2023-06-14T15:40:52;100238.59;;;18.80;69.60
31717;BME280;18301;51.076;17.046;2023-06-14T15:45:53;100234.97;;;18.72;70.72
31717;BME280;18301;51.076;17.046;2023-06-14T15:50:55;100239.44;;;18.81;68.85
31717;BME280;18301;51.076;17.046;2023-06-14T15:55:56;100230.38;;;18.72;68.95
31717;BME280;18301;51.076;17.046;2023-06-14T16:00:58;100222.88;;;18.91;68.08
31717;BME280;18301;51.076;17.046;2023-06-14T16:05:59;100219.25;;;19.15;67.97
31717;BME280;18301;51.076;17.046;2023-06-14T16:11:01;100215.34;;;18.93;67.91
31717;BME280;18301;51.076;17.046;2023-06-14T16:16:02;100224.38;;;19.18;67.55
31717;BME280;18301;51.076;17.046;2023-06-14T16:21:04;100217.91;;;19.11;67.10
31717;BME280;18301;51.076;17.046;2023-06-14T16:26:10;100222.69;;;19.08;67.24
31717;BME280;18301;51.076;17.046;2023-06-14T16:31:13;100226.94;;;19.19;66.42
31717;BME280;18301;51.076;17.046;2023-06-14T16:36:24;100226.09;;;19.19;65.38
31717;BME280;18301;51.076;17.046;2023-06-14T16:41:25;100234.84;;;18.98;65.60
31717;BME280;18301;51.076;17.046;2023-06-14T16:46:31;100245.59;;;18.83;66.30
31717;BME280;18301;51.076;17.046;2023-06-14T16:51:33;100233.63;;;18.92;66.36
31717;BME280;18301;51.076;17.046;2023-06-14T16:56:35;100245.78;;;18.73;67.23
31717;BME280;18301;51.076;17.046;2023-06-14T17:01:36;100249.97;;;18.59;68.18
31717;BME280;18301;51.076;17.046;2023-06-14T17:06:39;100250.66;;;18.45;69.13
31717;BME280;18301;51.076;17.046;2023-06-14T17:11:40;100250.94;;;18.17;71.22
31717;BME280;18301;51.076;17.046;2023-06-14T17:16:42;100258.66;;;18.30;70.88
31717;BME280;18301;51.076;17.046;2023-06-14T17:21:44;100250.97;;;18.26;70.55
31717;BME280;18301;51.076;17.046;2023-06-14T17:26:50;100258.13;;;18.27;70.70
31717;BME280;18301;51.076;17.046;2023-06-14T17:31:52;100257.75;;;18.22;71.29
31717;BME280;18301;51.076;17.046;2023-06-14T17:36:54;100259.84;;;18.28;70.63
31717;BME280;18301;51.076;17.046;2023-06-14T17:41:55;100264.63;;;18.26;70.64
31717;BME280;18301;51.076;17.046;2023-06-14T17:46:57;100265.97;;;18.22;70.79
31717;BME280;18301;51.076;17.046;2023-06-14T17:51:58;100265.66;;;18.33;70.46
31717;BME280;18301;51.076;17.046;2023-06-14T17:57:00;100253.38;;;18.37;69.89
31717;BME280;18301;51.076;17.046;2023-06-14T18:02:02;100253.03;;;18.40;69.82
31717;BME280;18301;51.076;17.046;2023-06-14T18:07:04;100254.41;;;18.44;69.96
31717;BME280;18301;51.076;17.046;2023-06-14T18:12:06;100252.69;;;18.43;70.21
31717;BME280;18301;51.076;17.046;2023-06-14T18:17:10;100263.09;;;18.39;70.53
31717;BME280;18301;51.076;17.046;2023-06-14T18:22:12;100258.84;;;18.37;70.82
31717;BME280;18301;51.076;17.046;2023-06-14T18:27:13;100260.88;;;18.35;70.79
31717;BME280;18301;51.076;17.046;2023-06-14T18:32:15;100257.13;;;18.36;70.69
31717;BME280;18301;51.076;17.046;2023-06-14T18:37:16;100252.34;;;18.30;70.73
31717;BME280;18301;51.076;17.046;2023-06-14T18:42:18;100272.50;;;18.29;71.58
31717;BME280;18301;51.076;17.046;2023-06-14T18:47:19;100276.56;;;18.25;71.93
31717;BME280;18301;51.076;17.046;2023-06-14T18:52:21;100280.66;;;18.21;72.11
31717;BME280;18301;51.076;17.046;2023-06-14T18:57:22;100277.22;;;18.18;72.14
31717;BME280;18301;51.076;17.046;2023-06-14T19:02:26;100276.53;;;18.16;71.95
31717;BME280;18301;51.076;17.046;2023-06-14T19:07:29;100286.25;;;18.11;72.12
31717;BME280;18301;51.076;17.046;2023-06-14T19:12:30;100290.88;;;18.10;72.10
31717;BME280;18301;51.076;17.046;2023-06-14T19:17:32;100286.06;;;18.04;71.92
31717;BME280;18301;51.076;17.046;2023-06-14T19:22:34;100288.03;;;17.94;71.81
31717;BME280;18301;51.076;17.046;2023-06-14T19:27:35;100295.84;;;17.81;71.92
31717;BME280;18301;51.076;17.046;2023-06-14T19:32:37;100293.34;;;17.69;72.23
31717;BME280;18301;51.076;17.046;2023-06-14T19:37:39;100290.25;;;17.64;72.59
31717;BME280;18301;51.076;17.046;2023-06-14T19:42:41;100299.56;;;17.54;72.75
31717;BME280;18301;51.076;17.046;2023-06-14T19:47:42;100290.78;;;17.42;73.03
31717;BME280;18301;51.076;17.046;2023-06-14T19:52:45;100291.41;;;17.36;73.46
31717;BME280;18301;51.076;17.046;2023-06-14T19:57:47;100299.25;;;17.31;73.71
31717;BME280;18301;51.076;17.046;2023-06-14T20:02:48;100307.44;;;17.31;73.81
31717;BME280;18301;51.076;17.046;2023-06-14T20:07:51;100304.69;;;17.31;74.10
31717;BME280;18301;51.076;17.046;2023-06-14T20:12:53;100306.09;;;17.35;74.34
31717;BME280;18301;51.076;17.046;2023-06-14T20:17:54;100315.94;;;17.28;74.51
31717;BME280;18301;51.076;17.046;2023-06-14T20:22:56;100310.78;;;17.24;74.81
31717;BME280;18301;51.076;17.046;2023-06-14T20:27:58;100308.38;;;17.21;74.73
31717;BME280;18301;51.076;17.046;2023-06-14T20:32:59;100310.78;;;17.24;74.83
31717;BME280;18301;51.076;17.046;2023-06-14T20:38:01;100308.09;;;17.33;75.17
31717;BME280;18301;51.076;17.046;2023-06-14T20:43:02;100311.03;;;17.39;75.42
31717;BME280;18301;51.076;17.046;2023-06-14T20:48:07;100315.28;;;17.34;75.20
31717;BME280;18301;51.076;17.046;2023-06-14T20:53:08;100311.78;;;17.23;75.66
31717;BME280;18301;51.076;17.046;2023-06-14T20:58:10;100306.28;;;17.15;75.95
31717;BME280;18301;51.076;17.046;2023-06-14T21:03:13;100304.34;;;17.08;76.13
31717;BME280;18301;51.076;17.046;2023-06-14T21:08:14;100301.78;;;17.06;76.52
31717;BME280;18301;51.076;17.046;2023-06-14T21:13:16;100297.50;;;17.03;77.09
31717;BME280;18301;51.076;17.046;2023-06-14T21:18:17;100308.72;;;17.00;76.87
31717;BME280;18301;51.076;17.046;2023-06-14T21:23:19;100304.66;;;17.05;77.10
31717;BME280;18301;51.076;17.046;2023-06-14T21:28:22;100323.91;;;17.03;77.64
31717;BME280;18301;51.076;17.046;2023-06-14T21:33:23;100307.59;;;17.11;77.84
31717;BME280;18301;51.076;17.046;2023-06-14T21:38:24;100319.03;;;17.15;77.93
31717;BME280;18301;51.076;17.046;2023-06-14T21:43:26;100313.75;;;17.13;78.22
31717;BME280;18301;51.076;17.046;2023-06-14T21:48:27;100312.38;;;17.09;78.26
31717;BME280;18301;51.076;17.046;2023-06-14T21:53:29;100318.44;;;17.03;78.95
31717;BME280;18301;51.076;17.046;2023-06-14T21:58:33;100311.03;;;16.95;78.89
31717;BME280;18301;51.076;17.046;2023-06-14T22:03:34;100313.09;;;16.93;79.36
31717;BME280;18301;51.076;17.046;2023-06-14T22:08:36;100310.91;;;16.97;79.47
31717;BME280;18301;51.076;17.046;2023-06-14T22:13:38;100304.03;;;16.93;79.39
31717;BME280;18301;51.076;17.046;2023-06-14T22:18:40;100306.38;;;16.88;79.30
31717;BME280;18301;51.076;17.046;2023-06-14T22:23:43;100298.13;;;16.79;79.60
31717;BME280;18301;51.076;17.046;2023-06-14T22:28:45;100298.56;;;16.75;79.86
31717;BME280;18301;51.076;17.046;2023-06-14T22:33:50;100294.91;;;16.66;80.18
31717;BME280;18301;51.076;17.046;2023-06-14T22:38:52;100308.13;;;16.61;80.70
31717;BME280;18301;51.076;17.046;2023-06-14T22:43:54;100298.41;;;16.58;80.86
31717;BME280;18301;51.076;17.046;2023-06-14T22:48:56;100298.88;;;16.54;81.06
31717;BME280;18301;51.076;17.046;2023-06-14T22:53:59;100297.13;;;16.53;81.38
31717;BME280;18301;51.076;17.046;2023-06-14T22:59:01;100292.63;;;16.44;81.53
31717;BME280;18301;51.076;17.046;2023-06-14T23:04:04;100288.81;;;16.37;81.73
31717;BME280;18301;51.076;17.046;2023-06-14T23:09:06;100289.72;;;16.27;81.90
31717;BME280;18301;51.076;17.046;2023-06-14T23:14:09;100285.19;;;16.18;82.42
31717;BME280;18301;51.076;17.046;2023-06-14T23:19:11;100283.78;;;16.14;82.79
31717;BME280;18301;51.076;17.046;2023-06-14T23:24:15;100289.84;;;16.08;82.73
31717;BME280;18301;51.076;17.046;2023-06-14T23:29:17;100286.16;;;15.99;83.46
31717;BME280;18301;51.076;17.046;2023-06-14T23:34:23;100279.00;;;15.98;83.74
31717;BME280;18301;51.076;17.046;2023-06-14T23:39:27;100283.56;;;15.98;83.64
31717;BME280;18301;51.076;17.046;2023-06-14T23:44:29;100284.19;;;15.92;83.69
31717;BME280;18301;51.076;17.046;2023-06-14T23:49:37;100272.78;;;15.78;83.66
31717;BME280;18301;51.076;17.046;2023-06-14T23:54:39;100273.69;;;15.69;83.96
31717;BME280;18301;51.076;17.046;2023-06-14T23:59:40;100272.53;;;15.62;84.07
